Time;durP1;ratioP1;P1;durP2;ratioP2;P2;SDS_P1;SDS_P2;PMS_P1;PMS_P2;Temp;Humidity;BMP_temperature;BMP_pressure;BME280_temperature;BME280_humidity;BME280_pressure;Samples;Min_cycle;Max_cycle;Signal;HPM_P1;HPM_P2
2021/09/19 00:00:39;;;;;;;4.40;3.50;;;;;;;11.12;75.66;100997.72;1593033;89;21100;-81
2021/09/19 00:03:05;;;;;;;5.95;3.98;;;;;;;11.11;75.65;100993.41;1603471;88;21070;-81
2021/09/19 00:05:32;;;;;;;4.05;3.20;;;;;;;11.09;75.66;100992.14;1587553;89;21080;-81
2021/09/19 00:07:58;;;;;;;4.12;3.83;;;;;;;11.08;75.67;100996.89;1607911;87;21100;-81
2021/09/19 00:10:25;;;;;;;3.77;3.40;;;;;;;11.09;75.68;100996.45;1608919;88;21092;-81
2021/09/19 00:12:51;;;;;;;4.40;3.45;;;;;;;11.08;75.64;100993.45;1589952;89;21080;-81
2021/09/19 00:15:19;;;;;;;4.12;3.40;;;;;;;11.06;75.62;100993.47;1600393;88;21419;-81
2021/09/19 00:17:46;;;;;;;5.10;3.58;;;;;;;11.06;75.71;100996.05;1600276;88;21658;-81
2021/09/19 00:20:16;;;;;;;5.83;3.40;;;;;;;11.07;75.66;100997.77;1587363;89;21104;-81
2021/09/19 00:22:42;;;;;;;4.83;2.98;;;;;;;11.05;75.65;101000.81;1571893;89;21092;-81
2021/09/19 00:25:11;;;;;;;6.97;4.05;;;;;;;11.05;75.64;100995.64;1599819;89;21096;-81
2021/09/19 00:27:38;;;;;;;8.38;3.90;;;;;;;11.05;75.66;100995.64;1590072;89;21100;-81
2021/09/19 00:30:07;;;;;;;3.92;3.52;;;;;;;11.05;75.63;100997.37;1581757;89;21732;-81
2021/09/19 00:32:35;;;;;;;4.55;3.67;;;;;;;11.04;75.63;100996.95;1590389;88;21084;-81
2021/09/19 00:35:04;;;;;;;4.15;3.47;;;;;;;11.04;75.65;100991.77;1600045;88;21089;-82
2021/09/19 00:37:30;;;;;;;6.42;4.03;;;;;;;11.02;75.58;100994.38;1600099;89;21432;-81
2021/09/19 00:39:59;;;;;;;6.37;3.50;;;;;;;11.00;75.64;100993.54;1600133;89;21132;-81
2021/09/19 00:42:25;;;;;;;4.85;3.70;;;;;;;11.01;75.65;100991.38;1590115;89;21083;-81
2021/09/19 00:45:01;;;;;;;5.17;3.80;;;;;;;11.02;75.65;100986.61;1597564;89;21048;-81
2021/09/19 00:47:27;;;;;;;6.50;3.65;;;;;;;11.02;75.69;100984.47;1601758;89;20977;-81
2021/09/19 00:49:56;;;;;;;9.25;3.75;;;;;;;11.03;75.62;100984.88;1600461;89;20970;-81
2021/09/19 00:52:23;;;;;;;4.58;3.85;;;;;;;11.01;75.64;100986.20;1582918;89;20946;-81
2021/09/19 00:54:50;;;;;;;4.95;3.20;;;;;;;11.02;75.68;100984.03;1577286;91;20949;-81
2021/09/19 00:57:18;;;;;;;5.47;3.55;;;;;;;11.04;75.68;100985.30;1577114;91;39545;-81
2021/09/19 00:59:49;;;;;;;4.28;3.70;;;;;;;11.05;75.66;100989.16;1578407;89;20966;-81
2021/09/19 01:02:16;;;;;;;5.47;4.08;;;;;;;11.05;75.66;100990.46;1601963;88;21157;-81
2021/09/19 01:04:43;;;;;;;7.35;3.22;;;;;;;11.05;75.62;100991.75;1606161;88;21145;-81
2021/09/19 01:07:11;;;;;;;5.87;4.12;;;;;;;11.05;75.63;100992.19;1623041;88;21045;-81
2021/09/19 01:09:39;;;;;;;;;;;;;;;11.03;75.59;100986.17;1577822;89;21378;-81
2021/09/19 01:12:09;;;;;;;3.60;3.30;;;;;;;11.01;75.62;100987.92;1590407;88;20328;-81
2021/09/19 01:14:39;;;;;;;4.60;3.87;;;;;;;11.00;75.66;100985.77;1600106;89;21322;-81
2021/09/19 01:17:06;;;;;;;5.12;4.12;;;;;;;11.02;75.66;100990.94;1590209;89;21064;-81
2021/09/19 01:19:35;;;;;;;7.00;3.60;;;;;;;11.00;75.62;100992.68;1600781;89;21144;-81
2021/09/19 01:22:04;;;;;;;4.70;3.77;;;;;;;10.98;75.65;100996.58;1581089;87;21387;-81
2021/09/19 01:24:30;;;;;;;5.03;3.85;;;;;;;10.99;75.66;100987.95;1575138;89;21127;-81
2021/09/19 01:26:57;;;;;;;5.67;3.90;;;;;;;10.99;75.66;100990.97;1575504;91;21101;-81
2021/09/19 01:29:24;;;;;;;4.17;3.55;;;;;;;10.99;75.64;100985.80;1582208;89;21092;-81
2021/09/19 01:31:50;;;;;;;7.25;3.98;;;;;;;10.99;75.71;100980.19;1592549;89;21124;-81
2021/09/19 01:34:16;;;;;;;5.67;3.50;;;;;;;10.99;75.64;100978.03;1589591;88;21451;-81
2021/09/19 01:36:42;;;;;;;4.37;3.98;;;;;;;10.99;75.69;100987.09;1593605;89;21089;-81
2021/09/19 01:39:10;;;;;;;7.12;4.22;;;;;;;11.00;75.72;100984.48;1584883;90;21371;-81
2021/09/19 01:41:37;;;;;;;4.55;3.70;;;;;;;11.01;75.73;100984.90;1574876;89;21367;-81
2021/09/19 01:44:06;;;;;;;4.17;3.77;;;;;;;11.03;75.71;100984.88;1560944;90;21173;-81
2021/09/19 01:46:34;;;;;;;4.75;3.27;;;;;;;11.02;75.67;100988.34;1560791;90;21153;-81
2021/09/19 01:49:01;;;;;;;4.35;3.80;;;;;;;11.01;75.71;100991.38;1571854;90;20946;-81
2021/09/19 01:51:27;;;;;;;;;;;;;;;11.00;75.71;100990.95;1584753;89;21376;-81
2021/09/19 01:53:54;;;;;;;6.00;3.45;;;;;;;11.01;75.79;100987.92;1566275;90;20368;-81
2021/09/19 01:56:24;;;;;;;4.30;3.10;;;;;;;11.02;75.74;100984.47;1560459;91;21482;-81
2021/09/19 01:58:55;;;;;;;4.22;3.83;;;;;;;11.01;75.74;100983.61;1571262;90;21357;-81
2021/09/19 02:01:23;;;;;;;3.85;3.42;;;;;;;11.01;75.75;100978.87;1562320;90;21555;-81
2021/09/19 02:03:53;;;;;;;5.97;3.95;;;;;;;10.99;75.70;100978.89;1579268;89;22276;-81
2021/09/19 02:06:20;;;;;;;6.78;4.20;;;;;;;10.98;75.67;100982.78;1563218;90;21006;-82
2021/09/19 02:08:48;;;;;;;4.08;3.75;;;;;;;10.96;75.71;100980.22;1544481;91;21062;-81
2021/09/19 02:11:14;;;;;;;;;;;;;;;10.93;75.71;100973.34;1565244;91;20953;-81
2021/09/19 02:13:45;;;;;;;5.97;3.60;;;;;;;10.92;75.74;100976.81;1562675;91;20097;-81
2021/09/19 02:16:13;;;;;;;4.67;4.10;;;;;;;10.92;75.78;100979.39;1573446;90;20978;-81
2021/09/19 02:18:39;;;;;;;4.30;3.83;;;;;;;10.93;75.78;100975.08;1587173;90;20995;-81
2021/09/19 02:21:08;;;;;;;;;;;;;;;10.93;75.79;100972.05;1582284;90;20998;-81
2021/09/19 02:23:35;;;;;;;4.75;3.60;;;;;;;10.93;75.81;100973.78;1562820;90;20114;-81
2021/09/19 02:26:02;;;;;;;8.90;4.00;;;;;;;10.92;75.75;100973.36;1562894;91;20911;-81
2021/09/19 02:28:28;;;;;;;5.17;3.52;;;;;;;10.91;75.77;100971.25;1562869;91;20949;-81
2021/09/19 02:30:55;;;;;;;6.85;4.30;;;;;;;10.91;75.80;100960.05;1562951;90;20950;-81
2021/09/19 02:33:21;;;;;;;6.67;3.98;;;;;;;10.90;75.79;100963.06;1577775;89;21514;-81
2021/09/19 02:35:47;;;;;;;6.42;4.47;;;;;;;10.89;75.81;100960.06;1587529;90;20966;-81
2021/09/19 02:38:14;;;;;;;5.55;4.05;;;;;;;10.88;75.81;100960.94;1579926;90;20930;-81
2021/09/19 02:40:40;;;;;;;8.83;4.25;;;;;;;10.88;75.80;100958.78;1562787;90;20998;-81
2021/09/19 02:43:07;;;;;;;4.70;4.25;;;;;;;10.86;75.81;100958.80;1562645;91;26929;-81
2021/09/19 02:45:40;;;;;;;7.33;4.75;;;;;;;10.86;75.85;100958.80;1565036;90;21006;-81
2021/09/19 02:48:06;;;;;;;5.58;4.15;;;;;;;10.86;75.83;100959.23;1561316;90;21040;-81
2021/09/19 02:50:35;;;;;;;4.70;3.87;;;;;;;10.84;75.81;100957.96;1560625;91;22397;-81
2021/09/19 02:53:03;;;;;;;6.90;3.80;;;;;;;10.83;75.82;100961.86;1564172;90;23748;-81
2021/09/19 02:55:29;;;;;;;;;;;;;;;10.78;75.72;100964.94;1571035;90;21085;-81
2021/09/19 02:57:55;;;;;;;8.03;4.33;;;;;;;10.72;75.86;100962.41;1571280;90;20863;-81
2021/09/19 03:00:24;;;;;;;5.30;3.85;;;;;;;10.69;75.82;100969.77;1561503;90;21084;-82
2021/09/19 03:02:52;;;;;;;8.35;4.50;;;;;;;10.66;75.83;100963.77;1577078;89;21129;-81
2021/09/19 03:05:19;;;;;;;5.75;4.30;;;;;;;10.65;75.88;100971.11;1611192;89;21069;-81
2021/09/19 03:07:46;;;;;;;4.05;3.65;;;;;;;10.64;75.99;100964.23;1605667;89;21069;-81
2021/09/19 03:10:14;;;;;;;;;;;;;;;10.65;75.99;100965.50;1574602;90;21097;-81
2021/09/19 03:12:40;;;;;;;5.80;3.50;;;;;;;10.65;76.09;100962.91;1585348;89;20272;-81
2021/09/19 03:15:10;;;;;;;6.60;4.08;;;;;;;10.66;75.97;100958.59;1585055;90;21021;-81
2021/09/19 03:17:37;;;;;;;4.25;3.55;;;;;;;10.64;75.99;100961.64;1583229;89;21125;-81
2021/09/19 03:20:07;;;;;;;13.18;4.20;;;;;;;10.63;75.94;100958.63;1583413;88;21652;-81
2021/09/19 03:22:37;;;;;;;6.97;4.17;;;;;;;10.60;75.97;100962.11;1583550;89;21126;-81
2021/09/19 03:25:05;;;;;;;5.25;3.75;;;;;;;10.57;75.94;100962.99;1581226;90;21085;-81
2021/09/19 03:27:33;;;;;;;4.78;3.87;;;;;;;10.52;75.92;100958.30;1582537;90;21149;-81
2021/09/19 03:30:00;;;;;;;5.00;3.33;;;;;;;10.47;75.87;100970.42;1583302;89;21065;-81
2021/09/19 03:32:27;;;;;;;3.77;3.42;;;;;;;10.42;75.89;100971.34;1568070;90;21112;-81
2021/09/19 03:34:53;;;;;;;5.58;4.40;;;;;;;10.36;75.88;100965.83;1571614;90;21082;-81
2021/09/19 03:37:21;;;;;;;4.28;3.83;;;;;;;10.30;75.90;100972.77;1568973;90;21100;-81
2021/09/19 03:39:47;;;;;;;4.58;4.03;;;;;;;10.23;75.94;100977.14;1597060;89;21171;-81
2021/09/19 03:42:14;;;;;;;4.83;3.85;;;;;;;10.16;75.96;100973.72;1577574;89;21111;-81
2021/09/19 03:44:47;;;;;;;4.92;4.17;;;;;;;10.11;75.98;100967.73;1577162;90;21159;-81
2021/09/19 03:47:13;;;;;;;5.40;4.28;;;;;;;10.08;76.01;100968.19;1582660;89;21107;-81
2021/09/19 03:49:39;;;;;;;5.33;3.75;;;;;;;10.05;76.05;100965.63;1577896;89;20996;-81
2021/09/19 03:52:06;;;;;;;9.18;4.97;;;;;;;10.02;76.05;100969.53;1578558;89;21475;-81
2021/09/19 03:54:32;;;;;;;7.85;4.10;;;;;;;9.97;76.07;100964.40;1587575;89;21168;-81
2021/09/19 03:56:58;;;;;;;5.00;4.60;;;;;;;9.95;76.11;100970.02;1577638;90;21189;-81
2021/09/19 03:59:25;;;;;;;6.87;4.20;;;;;;;9.92;76.10;100971.33;1577467;89;21111;-81
2021/09/19 04:01:51;;;;;;;4.87;4.30;;;;;;;9.91;76.15;100970.47;1578263;89;21068;-81
2021/09/19 04:04:18;;;;;;;6.53;4.83;;;;;;;9.89;76.15;100967.04;1620498;88;21081;-81
2021/09/19 04:06:44;;;;;;;6.50;4.60;;;;;;;9.87;76.16;100967.95;1588525;89;21627;-81
2021/09/19 04:09:11;;;;;;;6.65;5.00;;;;;;;9.86;76.20;100966.23;1596231;87;21137;-81
2021/09/19 04:11:37;;;;;;;5.67;4.00;;;;;;;9.84;76.21;100966.25;1593681;89;21065;-81
2021/09/19 04:14:03;;;;;;;5.40;4.33;;;;;;;9.83;76.19;100970.13;1578107;89;21541;-81
2021/09/19 04:16:32;;;;;;;7.75;4.08;;;;;;;9.80;76.19;100973.59;1591069;89;21467;-81
2021/09/19 04:18:59;;;;;;;8.73;4.45;;;;;;;9.78;76.20;100974.04;1599308;89;21076;-81
2021/09/19 04:21:25;;;;;;;5.62;4.25;;;;;;;9.77;76.24;100964.58;1594590;89;21152;-81
2021/09/19 04:23:51;;;;;;;7.95;5.62;;;;;;;9.77;76.23;100966.30;1599817;89;21127;-81
2021/09/19 04:26:18;;;;;;;11.35;5.50;;;;;;;9.75;76.29;100968.89;1584277;89;21068;-81
2021/09/19 04:28:44;;;;;;;6.87;5.67;;;;;;;9.76;76.34;100967.17;1580329;89;21087;-81
2021/09/19 04:31:10;;;;;;;6.70;5.90;;;;;;;9.77;76.36;100969.74;1570850;88;2579997;-81
2021/09/19 04:33:40;;;;;;;9.95;6.50;;;;;;;9.80;76.39;100970.16;1615266;87;21120;-81
2021/09/19 04:36:06;;;;;;;17.23;7.35;;;;;;;9.82;76.40;100970.56;1596381;88;21683;-81
2021/09/19 04:38:33;;;;;;;10.60;6.83;;;;;;;9.83;76.44;100972.28;1624981;86;21082;-82
2021/09/19 04:41:02;;;;;;;7.05;5.72;;;;;;;9.84;76.41;100970.13;1626546;87;21071;-82
2021/09/19 04:43:29;;;;;;;10.25;5.90;;;;;;;9.85;76.40;100980.02;1625149;86;21112;-82
2021/09/19 04:45:55;;;;;;;7.97;5.62;;;;;;;9.85;76.45;100969.25;1623628;86;21052;-82
2021/09/19 04:48:23;;;;;;;12.60;5.85;;;;;;;9.88;76.53;100967.05;1623313;88;22242;-82
2021/09/19 04:50:50;;;;;;;6.30;5.55;;;;;;;9.93;76.52;100971.75;1627085;85;21658;-82
2021/09/19 04:53:16;;;;;;;9.80;5.15;;;;;;;9.95;76.54;100971.30;1635429;86;21060;-82
2021/09/19 04:55:42;;;;;;;9.03;5.62;;;;;;;10.00;76.60;100977.30;1623850;88;21626;-82
2021/09/19 04:58:09;;;;;;;6.72;5.50;;;;;;;10.02;76.57;100973.41;1626805;86;21115;-82
2021/09/19 05:00:35;;;;;;;7.03;5.50;;;;;;;10.04;76.58;100972.52;1638878;86;21567;-82
2021/09/19 05:03:01;;;;;;;6.58;5.67;;;;;;;10.06;76.64;100973.38;1638745;85;21068;-83
2021/09/19 05:05:28;;;;;;;8.00;5.55;;;;;;;10.08;76.64;100976.80;1635303;86;27968;-82
2021/09/19 05:07:54;;;;;;;8.03;5.30;;;;;;;10.12;76.66;100986.67;1643647;85;21052;-82
2021/09/19 05:10:20;;;;;;;7.25;5.15;;;;;;;10.13;76.66;100984.52;1641659;85;21071;-82
2021/09/19 05:12:47;;;;;;;5.05;4.65;;;;;;;10.15;76.72;100991.38;1637668;85;21052;-82
2021/09/19 05:15:13;;;;;;;6.35;5.75;;;;;;;10.19;76.73;100993.11;1638755;85;21127;-82
2021/09/19 05:17:40;;;;;;;7.03;5.25;;;;;;;10.21;76.71;100992.66;1651377;85;21103;-82
2021/09/19 05:20:08;;;;;;;11.05;5.10;;;;;;;10.23;76.74;100993.50;1644784;85;21100;-82
2021/09/19 05:22:34;;;;;;;5.87;5.12;;;;;;;10.26;76.74;100992.19;1653134;85;21035;-82
2021/09/19 05:25:01;;;;;;;5.17;4.67;;;;;;;10.29;76.76;100996.47;1647036;85;21043;-82
2021/09/19 05:27:27;;;;;;;5.65;5.15;;;;;;;10.32;76.76;100998.17;1647501;85;21614;-82
2021/09/19 05:29:54;;;;;;;5.87;5.30;;;;;;;10.35;76.81;100996.85;1646472;85;21084;-82
2021/09/19 05:32:20;;;;;;;5.90;5.37;;;;;;;10.37;76.81;100990.80;1657979;85;21084;-82
2021/09/19 05:34:46;;;;;;;6.53;4.87;;;;;;;10.42;76.88;100994.60;1652162;85;21679;-82
2021/09/19 05:37:13;;;;;;;7.28;5.70;;;;;;;10.48;76.87;100995.84;1650619;85;21572;-82
2021/09/19 05:39:43;;;;;;;7.60;5.58;;;;;;;10.51;76.87;100990.64;1644851;85;21087;-82
2021/09/19 05:42:09;;;;;;;6.92;5.20;;;;;;;10.56;76.88;100998.78;1656343;85;21035;-82
2021/09/19 05:44:36;;;;;;;6.78;4.87;;;;;;;10.58;76.84;101001.34;1652542;85;21098;-82
2021/09/19 05:47:04;;;;;;;5.78;5.25;;;;;;;10.60;76.86;101004.77;1646124;85;21047;-82
2021/09/19 05:49:30;;;;;;;7.05;5.03;;;;;;;10.63;76.87;101001.30;1656837;85;20984;-82
2021/09/19 05:51:57;;;;;;;6.62;5.25;;;;;;;10.65;76.92;101000.41;1652196;85;20995;-82
2021/09/19 05:54:25;;;;;;;5.75;5.25;;;;;;;10.72;77.03;100998.63;1656007;85;20952;-82
2021/09/19 05:56:51;;;;;;;10.00;5.60;;;;;;;10.79;77.08;100998.98;1642506;85;210919;-82
2021/09/19 05:59:17;;;;;;;9.50;5.45;;;;;;;10.86;77.01;100996.31;1647596;85;21043;-82
2021/09/19 06:01:43;;;;;;;8.25;5.53;;;;;;;10.91;77.03;100987.20;1655262;84;21535;-82
2021/09/19 06:04:10;;;;;;;6.40;5.33;;;;;;;10.96;77.03;100995.74;1653505;85;21355;-82
2021/09/19 06:06:37;;;;;;;5.78;4.90;;;;;;;11.01;77.05;100991.80;1655739;85;21016;-82
2021/09/19 06:09:04;;;;;;;6.87;5.95;;;;;;;11.06;77.07;100993.47;1647251;85;21116;-82
2021/09/19 06:11:30;;;;;;;8.88;6.42;;;;;;;11.11;77.07;100990.39;1651863;85;21007;-82
2021/09/19 06:13:56;;;;;;;11.48;6.08;;;;;;;11.16;77.07;100992.92;1653401;85;20968;-83
2021/09/19 06:16:23;;;;;;;9.00;5.75;;;;;;;11.22;77.13;100992.41;1652797;85;217025;-82
2021/09/19 06:18:49;;;;;;;5.33;4.83;;;;;;;11.28;77.12;100990.18;1644391;85;21058;-82
2021/09/19 06:21:15;;;;;;;8.78;6.15;;;;;;;11.33;77.08;100994.01;1640536;85;21077;-82
2021/09/19 06:23:42;;;;;;;8.25;5.65;;;;;;;11.38;77.14;100994.80;1643234;85;20963;-82
2021/09/19 06:26:08;;;;;;;6.12;5.15;;;;;;;11.43;77.14;100987.39;1644507;85;21065;-82
2021/09/19 06:28:34;;;;;;;5.72;5.22;;;;;;;11.49;77.11;100991.60;1654113;84;21019;-82
2021/09/19 06:31:05;;;;;;;5.80;5.30;;;;;;;11.53;77.10;100994.56;1644921;85;22374;-82
2021/09/19 06:33:32;;;;;;;6.47;5.35;;;;;;;11.56;77.11;100995.82;1640762;85;21347;-82
2021/09/19 06:35:58;;;;;;;10.40;5.22;;;;;;;11.60;77.13;100997.05;1640756;85;21033;-82
2021/09/19 06:38:26;;;;;;;6.58;5.85;;;;;;;11.65;77.16;100993.55;1635034;84;21056;-82
2021/09/19 06:40:52;;;;;;;;;;;;;;;11.70;77.22;100989.16;1644371;85;21528;-83
2021/09/19 06:43:18;;;;;;;5.42;4.90;;;;;;;11.76;77.16;100990.36;1634038;85;26968;-83
2021/09/19 06:45:46;;;;;;;7.20;5.50;;;;;;;11.79;77.12;100987.31;1636994;85;21581;-83
2021/09/19 06:48:12;;;;;;;6.58;5.72;;;;;;;11.84;77.14;100988.55;1646456;82;21690;-83
2021/09/19 06:50:39;;;;;;;8.40;5.47;;;;;;;11.88;77.23;100979.84;1634778;85;21036;-82
2021/09/19 06:53:05;;;;;;;8.00;5.37;;;;;;;11.95;77.12;100983.20;1636680;85;21510;-82
2021/09/19 06:55:32;;;;;;;5.67;5.17;;;;;;;11.99;77.19;100988.28;1631939;85;21481;-82
2021/09/19 06:57:59;;;;;;;7.53;5.90;;;;;;;12.04;77.14;100985.61;1634130;85;21497;-82
2021/09/19 07:00:26;;;;;;;8.78;5.97;;;;;;;12.08;77.11;100978.20;1630961;85;21541;-82
2021/09/19 07:02:53;;;;;;;7.85;6.22;;;;;;;12.13;77.15;100985.02;1649589;85;21523;-82
2021/09/19 07:05:20;;;;;;;8.63;5.25;;;;;;;12.18;77.12;100987.55;1648051;85;21506;-81
2021/09/19 07:07:52;;;;;;;7.78;5.25;;;;;;;12.22;77.15;100983.58;1640685;85;21612;-81
2021/09/19 07:10:18;;;;;;;8.33;6.10;;;;;;;12.30;77.19;100988.64;1634917;85;21019;-81
2021/09/19 07:12:45;;;;;;;6.58;5.87;;;;;;;12.37;77.19;100983.76;1632397;85;22223;-81
2021/09/19 07:15:12;;;;;;;9.15;5.85;;;;;;;12.45;77.16;100994.00;1637411;85;21078;-81
2021/09/19 07:17:41;;;;;;;7.20;5.58;;;;;;;12.50;77.09;100987.82;1637031;85;21471;-81
2021/09/19 07:20:09;;;;;;;8.70;5.83;;;;;;;12.51;76.99;100984.34;1631450;85;21236;-81
2021/09/19 07:22:39;;;;;;;8.63;6.33;;;;;;;12.56;77.06;100981.66;1641049;85;21495;-81
2021/09/19 07:25:05;;;;;;;10.85;5.90;;;;;;;12.64;77.05;100990.16;1645037;85;21092;-81
2021/09/19 07:27:32;;;;;;;;;;;;;;;12.67;76.99;100987.95;1650394;85;21106;-82
2021/09/19 07:29:58;;;;;;;7.78;4.95;;;;;;;12.73;76.90;100993.03;1648598;85;27692;-82
2021/09/19 07:32:25;;;;;;;6.20;5.37;;;;;;;12.72;76.90;100973.16;1643027;85;29610;-82
2021/09/19 07:34:51;;;;;;;;;;;;;;;12.72;76.90;100973.16;1650810;85;21062;-82
2021/09/19 07:37:20;;;;;;;8.65;4.75;;;;;;;12.86;76.75;100994.07;1649542;85;20443;-82
2021/09/19 07:39:47;;;;;;;7.67;4.85;;;;;;;12.92;76.91;100995.69;1619223;85;21517;-82
2021/09/19 07:42:14;;;;;;;7.10;5.28;;;;;;;12.98;76.97;100993.42;1621026;87;21096;-82
2021/09/19 07:44:41;;;;;;;8.03;5.10;;;;;;;13.04;76.96;100992.83;1618396;85;21566;-82
2021/09/19 07:47:08;;;;;;;5.70;4.90;;;;;;;13.11;76.91;100989.22;1618691;87;21080;-82
2021/09/19 07:49:36;;;;;;;8.15;5.22;;;;;;;13.18;76.89;100988.24;1612325;87;21127;-82
2021/09/19 07:52:05;;;;;;;6.67;4.30;;;;;;;13.27;76.85;100995.43;1620054;87;21108;-82
2021/09/19 07:54:32;;;;;;;7.05;4.80;;;;;;;13.31;76.77;100986.25;1604276;86;21575;-82
2021/09/19 07:56:58;;;;;;;8.15;4.12;;;;;;;13.40;76.89;100985.20;1606902;87;21108;-82
2021/09/19 07:59:25;;;;;;;4.67;4.17;;;;;;;13.49;76.79;100985.00;1609764;87;21132;-86
2021/09/19 08:01:52;;;;;;;5.00;4.45;;;;;;;13.53;76.70;100989.20;1616057;87;21151;-83
2021/09/19 08:04:18;;;;;;;4.10;3.77;;;;;;;13.60;76.72;100986.88;1634170;87;21096;-83
2021/09/19 08:06:44;;;;;;;5.17;4.65;;;;;;;13.67;76.70;100988.90;1616269;87;21004;-80
2021/09/19 08:09:11;;;;;;;6.45;5.85;;;;;;;13.75;76.71;100992.18;1618494;86;21636;-80
2021/09/19 08:11:46;;;;;;;5.20;4.67;;;;;;;13.84;76.71;100994.13;1616482;87;21603;-79
2021/09/19 08:14:12;;;;;;;11.18;4.40;;;;;;;13.94;76.60;101010.80;1635621;87;21096;-79
2021/09/19 08:16:41;;;;;;;6.53;4.20;;;;;;;13.96;76.50;100999.48;1612803;87;21105;-80
2021/09/19 08:19:09;;;;;;;4.78;4.28;;;;;;;14.02;76.52;101004.54;1633246;87;21647;-79
2021/09/19 08:21:37;;;;;;;5.08;4.58;;;;;;;14.10;76.42;101012.12;1610050;87;21624;-79
2021/09/19 08:24:12;;;;;;;5.73;5.17;;;;;;;14.14;76.37;101013.31;1605129;87;21504;-79
2021/09/19 08:26:39;;;;;;;4.95;3.75;;;;;;;14.20;76.37;101011.86;1611107;87;21954;-79
2021/09/19 08:29:07;;;;;;;7.28;6.45;;;;;;;14.25;76.26;101011.30;1610036;87;21648;-79
2021/09/19 08:31:33;;;;;;;9.08;4.85;;;;;;;14.32;76.30;101010.71;1625323;87;20945;-79
2021/09/19 08:34:00;;;;;;;6.25;4.20;;;;;;;14.43;76.31;101009.17;1633088;87;21073;-79
2021/09/19 08:36:26;;;;;;;5.60;3.92;;;;;;;14.51;76.18;101006.78;1619608;87;21509;-79
2021/09/19 08:38:54;;;;;;;4.15;3.45;;;;;;;14.56;76.09;101008.78;1629211;85;21054;-79
2021/09/19 08:41:21;;;;;;;5.03;2.77;;;;;;;14.58;75.91;101001.80;1649736;85;21456;-79
2021/09/19 08:43:49;;;;;;;5.17;2.83;;;;;;;14.60;75.85;101012.61;1656692;85;21493;-79
2021/09/19 08:46:18;;;;;;;5.00;2.50;;;;;;;14.60;75.79;101008.26;1662970;84;21422;-79
2021/09/19 08:48:45;;;;;;;3.90;2.45;;;;;;;14.63;75.77;100999.52;1649290;84;21503;-79
2021/09/19 08:51:12;;;;;;;3.42;2.50;;;;;;;14.67;75.74;101000.70;1656811;84;20956;-79
2021/09/19 08:53:39;;;;;;;5.67;2.58;;;;;;;14.72;75.66;101004.03;1653483;84;21420;-79
2021/09/19 08:56:06;;;;;;;5.80;2.30;;;;;;;14.78;75.62;101001.72;1658948;85;20888;-79
2021/09/19 08:58:33;;;;;;;3.00;2.58;;;;;;;14.81;75.47;101002.94;1653914;85;20898;-79
2021/09/19 09:01:01;;;;;;;4.28;3.08;;;;;;;14.85;75.38;101005.86;1654179;85;20880;-79
2021/09/19 09:03:30;;;;;;;3.62;2.85;;;;;;;14.90;75.41;100999.63;1657424;85;20963;-79
2021/09/19 09:06:03;;;;;;;3.85;2.30;;;;;;;15.02;75.42;101001.05;1659605;84;20957;-79
2021/09/19 09:08:31;;;;;;;2.58;2.37;;;;;;;15.10;75.23;101002.09;1662999;84;21414;-79
2021/09/19 09:11:01;;;;;;;3.27;2.45;;;;;;;15.14;75.12;100998.52;1645400;85;20931;-79
2021/09/19 09:13:35;;;;;;;6.00;2.30;;;;;;;15.11;74.94;101000.75;1649841;84;21399;-79
2021/09/19 09:16:17;;;;;;;6.92;2.72;;;;;;;15.10;74.92;101002.09;1649749;85;20883;-79
2021/09/19 09:18:51;;;;;;;2.33;1.85;;;;;;;15.06;74.80;101003.97;1656986;85;20957;-79
2021/09/19 09:21:28;;;;;;;4.28;2.45;;;;;;;15.02;74.73;100994.53;1657224;84;20935;-79
2021/09/19 09:23:57;;;;;;;2.33;2.00;;;;;;;14.96;74.56;101007.72;1649843;85;20943;-79
2021/09/19 09:26:34;;;;;;;2.72;2.02;;;;;;;14.89;74.44;101002.28;1652339;85;20917;-79
2021/09/19 09:29:11;;;;;;;2.67;1.95;;;;;;;14.88;74.31;101014.44;1641174;85;22041;-79
2021/09/19 09:31:48;;;;;;;2.05;1.85;;;;;;;14.84;74.17;101017.17;1648247;85;21529;-79
2021/09/19 09:34:21;;;;;;;2.22;1.85;;;;;;;14.83;74.17;101012.41;1647302;84;21074;-79
2021/09/19 09:37:02;;;;;;;2.62;1.77;;;;;;;14.89;74.10;101020.50;1645464;85;21078;-79
2021/09/19 09:39:42;;;;;;;1.75;1.65;;;;;;;14.90;73.94;101010.05;1642217;85;20962;-79
2021/09/19 09:42:23;;;;;;;3.27;1.65;;;;;;;14.90;73.77;101013.10;1646041;85;21100;-79
2021/09/19 09:44:52;;;;;;;3.40;1.90;;;;;;;14.93;73.68;101017.38;1645994;85;21635;-79
2021/09/19 09:47:24;;;;;;;2.98;1.95;;;;;;;15.02;73.68;101013.21;1643730;85;21070;-79
2021/09/19 09:49:57;;;;;;;2.90;1.40;;;;;;;15.16;73.73;101023.62;1653750;85;21053;-79
2021/09/19 09:52:36;;;;;;;3.15;1.52;;;;;;;15.26;73.32;101012.94;1659032;85;21069;-79
2021/09/19 09:55:09;;;;;;;3.12;2.08;;;;;;;15.29;73.06;101011.55;1654968;85;21109;-79
2021/09/19 09:58:02;;;;;;;1.98;1.55;;;;;;;15.29;72.92;101009.80;1659309;85;21109;-79
2021/09/19 10:00:29;;;;;;;2.55;1.45;;;;;;;15.32;72.77;101008.85;1643753;85;20997;-79
2021/09/19 10:02:55;;;;;;;5.55;1.45;;;;;;;15.30;72.64;101014.55;1644381;85;21069;-79
2021/09/19 10:05:26;;;;;;;1.92;1.30;;;;;;;15.28;72.52;101012.44;1649573;84;21133;-79
2021/09/19 10:07:52;;;;;;;1.15;1.00;;;;;;;15.26;72.35;101015.09;1646095;85;21562;-79
2021/09/19 10:10:22;;;;;;;3.55;1.40;;;;;;;15.20;72.15;101003.55;1644221;85;21132;-79
2021/09/19 10:12:51;;;;;;;1.32;1.17;;;;;;;15.11;72.03;101009.87;1645857;85;21037;-79
2021/09/19 10:15:20;;;;;;;1.62;1.30;;;;;;;15.06;71.94;101013.53;1625819;86;21133;-79
2021/09/19 10:17:47;;;;;;;2.55;1.52;;;;;;;14.99;71.85;101016.75;1646021;85;21761;-79
2021/09/19 10:20:23;;;;;;;1.87;1.50;;;;;;;15.01;71.82;101016.71;1645365;84;21740;-79
2021/09/19 10:23:01;;;;;;;3.25;1.50;;;;;;;15.05;71.82;101015.28;1634401;85;20970;-79
2021/09/19 10:25:48;;;;;;;1.50;1.40;;;;;;;15.10;71.67;101016.42;1633741;85;21045;-80
2021/09/19 10:28:23;;;;;;;2.85;1.70;;;;;;;15.14;71.58;101024.56;1634051;85;21140;-80
2021/09/19 10:31:17;;;;;;;2.22;1.85;;;;;;;15.15;71.31;101018.00;1644123;85;21304;-80
2021/09/19 10:34:06;;;;;;;4.60;2.67;;;;;;;15.14;71.26;101013.69;1635943;85;21081;-80
2021/09/19 10:36:49;;;;;;;3.30;2.42;;;;;;;15.17;71.22;101025.77;1654592;85;21133;-80
2021/09/19 10:39:30;;;;;;;12.98;7.03;;;;;;;15.18;71.05;101024.88;1651191;85;20923;-80
2021/09/19 10:42:21;;;;;;;4.28;2.12;;;;;;;15.18;71.02;101032.24;1657819;84;20940;-80
2021/09/19 10:44:53;;;;;;;2.83;1.70;;;;;;;15.17;70.85;101031.84;1654503;85;20892;-80
2021/09/19 10:47:33;;;;;;;2.27;1.65;;;;;;;15.18;70.61;101030.09;1667560;84;20943;-80
2021/09/19 10:50:27;;;;;;;3.05;2.30;;;;;;;15.18;70.57;101030.94;1657788;85;20881;-80
2021/09/19 10:53:12;;;;;;;2.40;2.08;;;;;;;15.19;70.32;101027.89;1652777;84;21375;-80
2021/09/19 10:56:01;;;;;;;3.58;2.40;;;;;;;15.20;70.32;101030.90;1649852;84;20876;-80
2021/09/19 10:58:37;;;;;;;2.25;2.05;;;;;;;15.24;70.22;101028.61;1652927;84;20978;-80
2021/09/19 11:01:26;;;;;;;5.10;2.98;;;;;;;15.28;70.08;101025.02;1651190;84;20998;-83
2021/09/19 11:04:10;;;;;;;5.92;5.10;;;;;;;15.32;70.05;101023.19;1646395;84;21071;-80
2021/09/19 11:06:40;;;;;;;6.35;4.72;;;;;;;15.34;69.85;101021.39;1658125;84;21137;-80
2021/09/19 11:09:25;;;;;;;2.20;1.70;;;;;;;15.33;69.80;101020.53;1649719;85;20957;-80
2021/09/19 11:12:11;;;;;;;1.60;1.40;;;;;;;15.34;69.63;101018.33;1650658;84;20998;-79
2021/09/19 11:15:03;;;;;;;2.37;2.17;;;;;;;15.26;69.33;101020.75;1645494;84;21559;-79
2021/09/19 11:17:34;;;;;;;8.10;4.90;;;;;;;15.10;69.28;101023.79;1651089;85;21086;-79
2021/09/19 11:20:18;;;;;;;9.33;5.65;;;;;;;15.06;69.31;101021.34;1650552;84;21344;-79
2021/09/19 11:22:49;;;;;;;2.70;2.30;;;;;;;15.09;69.31;101018.17;1664632;84;21111;-79
2021/09/19 11:25:18;;;;;;;5.53;1.90;;;;;;;15.11;69.09;101026.80;1651431;84;21118;-79
2021/09/19 11:27:47;;;;;;;7.03;1.95;;;;;;;15.13;68.97;101021.09;1652641;84;21127;-79
2021/09/19 11:30:21;;;;;;;3.72;2.80;;;;;;;15.17;68.97;101021.87;1649508;84;21155;-79
2021/09/19 11:32:48;;;;;;;5.00;2.12;;;;;;;15.20;68.79;101017.88;1650657;84;21133;-79
2021/09/19 11:35:15;;;;;;;3.87;1.85;;;;;;;15.25;68.76;101021.20;1643466;84;21108;-79